createdAt,value
2019-01-19T00:00:59.744Z,1020.66
2019-01-19T00:02:08.882Z,1020.63
2019-01-19T00:03:17.964Z,1020.63
2019-01-19T00:04:27.046Z,1020.63
2019-01-19T00:05:35.873Z,1020.61
2019-01-19T00:06:45.205Z,1020.6
2019-01-19T00:07:54.438Z,1020.6
2019-01-19T00:09:03.523Z,1020.61
2019-01-19T00:10:12.383Z,1020.6
2019-01-19T00:11:21.251Z,1020.61
2019-01-19T00:12:30.645Z,1020.58
2019-01-19T00:13:39.555Z,1020.58
2019-01-19T00:14:48.645Z,1020.58
2019-01-19T00:15:57.741Z,1020.58
2019-01-19T00:17:07.375Z,1020.61
2019-01-19T00:18:16.734Z,1020.57
2019-01-19T00:19:26.154Z,1020.54
2019-01-19T00:20:34.999Z,1020.58
2019-01-19T00:21:44.379Z,1020.59
2019-01-19T00:22:53.463Z,1020.6
2019-01-19T00:24:02.541Z,1020.61
2019-01-19T00:25:11.683Z,1020.58
2019-01-19T00:26:21.043Z,1020.54
2019-01-19T00:27:30.402Z,1020.58
2019-01-19T00:28:39.280Z,1020.55
2019-01-19T00:29:48.958Z,1020.57
2019-01-19T00:30:58.151Z,1020.58
2019-01-19T00:32:06.971Z,1020.59
2019-01-19T00:33:15.791Z,1020.55
2019-01-19T00:34:24.680Z,1020.58
2019-01-19T00:35:40.915Z,1020.54
2019-01-19T00:36:50.065Z,1020.58
2019-01-19T00:37:58.916Z,1020.6
2019-01-19T00:39:07.994Z,1020.61
2019-01-19T00:40:17.093Z,1020.57
2019-01-19T00:41:26.185Z,1020.56
2019-01-19T00:42:35.385Z,1020.56
2019-01-19T00:43:44.488Z,1020.51
2019-01-19T00:44:53.559Z,1020.57
2019-01-19T00:46:02.759Z,1020.54
2019-01-19T00:47:11.610Z,1020.53
2019-01-19T00:48:20.776Z,1020.55
2019-01-19T00:49:30.142Z,1020.54
2019-01-19T00:50:38.970Z,1020.52
2019-01-19T00:51:47.801Z,1020.52
2019-01-19T00:52:56.607Z,1020.58
2019-01-19T00:54:05.519Z,1020.54
2019-01-19T00:55:14.885Z,1020.51
2019-01-19T00:56:23.742Z,1020.52
2019-01-19T00:57:32.832Z,1020.51
2019-01-19T00:58:42.178Z,1020.54
2019-01-19T00:59:51.318Z,1020.51
2019-01-19T01:01:00.190Z,1020.53
2019-01-19T01:02:09.278Z,1020.56
2019-01-19T01:03:18.376Z,1020.51
2019-01-19T01:04:27.448Z,1020.53
2019-01-19T01:05:36.372Z,1020.52
2019-01-19T01:06:45.445Z,1020.49
2019-01-19T01:07:54.510Z,1020.55
2019-01-19T01:09:03.333Z,1020.51
2019-01-19T01:10:12.402Z,1020.5
2019-01-19T01:11:21.808Z,1020.49
2019-01-19T01:12:30.917Z,1020.52
2019-01-19T01:13:39.991Z,1020.49
2019-01-19T01:14:48.803Z,1020.52
2019-01-19T01:15:57.630Z,1020.52
2019-01-19T01:17:06.760Z,1020.54
2019-01-19T01:18:15.588Z,1020.5
2019-01-19T01:19:24.412Z,1020.53
2019-01-19T01:20:33.293Z,1020.51
2019-01-19T01:21:42.366Z,1020.46
2019-01-19T01:22:51.310Z,1020.47
2019-01-19T01:24:00.143Z,1020.45
2019-01-19T01:25:09.221Z,1020.44
2019-01-19T01:26:18.335Z,1020.45
2019-01-19T01:27:27.687Z,1020.43
2019-01-19T01:28:36.554Z,1020.45
2019-01-19T01:29:45.645Z,1020.47
2019-01-19T01:30:54.486Z,1020.47
2019-01-19T01:32:03.581Z,1020.47
2019-01-19T01:33:12.428Z,1020.52
2019-01-19T01:34:21.868Z,1020.47
2019-01-19T01:35:32.686Z,1020.48
2019-01-19T01:36:41.818Z,1020.47
2019-01-19T01:37:50.883Z,1020.43
2019-01-19T01:38:59.978Z,1020.44
2019-01-19T01:40:09.172Z,1020.44
2019-01-19T01:41:18.254Z,1020.46
2019-01-19T01:42:27.344Z,1020.46
2019-01-19T01:43:36.450Z,1020.46
2019-01-19T01:44:45.526Z,1020.48
2019-01-19T01:45:54.665Z,1020.44
2019-01-19T01:47:03.478Z,1020.5
2019-01-19T01:48:12.279Z,1020.47
2019-01-19T01:49:21.117Z,1020.45
2019-01-19T01:50:29.929Z,1020.45
2019-01-19T01:51:39.094Z,1020.43
2019-01-19T01:52:47.905Z,1020.46
2019-01-19T01:53:57.243Z,1020.47
2019-01-19T01:55:06.066Z,1020.46
2019-01-19T01:56:14.869Z,1020.48
2019-01-19T01:57:24.313Z,1020.46
2019-01-19T01:58:33.128Z,1020.44
2019-01-19T01:59:42.462Z,1020.48
2019-01-19T02:00:52.108Z,1020.43
2019-01-19T02:02:00.959Z,1020.45
2019-01-19T02:03:10.114Z,1020.41
2019-01-19T02:04:19.444Z,1020.42
2019-01-19T02:05:28.806Z,1020.41
2019-01-19T02:06:44.919Z,1020.41
2019-01-19T02:07:53.771Z,1020.38
2019-01-19T02:09:02.677Z,1020.35
2019-01-19T02:10:11.513Z,1020.37
2019-01-19T02:11:20.576Z,1020.37
2019-01-19T02:12:29.655Z,1020.37
2019-01-19T02:13:38.740Z,1020.4
2019-01-19T02:14:47.932Z,1020.36
2019-01-19T02:15:57.018Z,1020.33
2019-01-19T02:17:05.835Z,1020.37
2019-01-19T02:18:14.662Z,1020.34
2019-01-19T02:19:23.469Z,1020.31
2019-01-19T02:20:32.652Z,1020.34
2019-01-19T02:21:41.761Z,1020.33
2019-01-19T02:22:50.829Z,1020.29
2019-01-19T02:23:59.658Z,1020.32
2019-01-19T02:25:09.032Z,1020.33
2019-01-19T02:26:18.192Z,1020.34
2019-01-19T02:27:27.029Z,1020.29
2019-01-19T02:28:36.138Z,1020.32
2019-01-19T02:29:45.521Z,1020.32
2019-01-19T02:30:54.896Z,1020.29
2019-01-19T02:32:04.070Z,1020.3
2019-01-19T02:33:12.908Z,1020.29
2019-01-19T02:34:21.763Z,1020.26
2019-01-19T02:35:30.577Z,1020.26
2019-01-19T02:36:39.647Z,1020.26
2019-01-19T02:37:48.510Z,1020.26
2019-01-19T02:38:57.860Z,1020.29
2019-01-19T02:40:06.975Z,1020.23
2019-01-19T02:41:15.815Z,1020.22
2019-01-19T02:42:24.929Z,1020.24
2019-01-19T02:43:33.837Z,1020.2
2019-01-19T02:44:42.919Z,1020.21
2019-01-19T02:45:52.014Z,1020.2
2019-01-19T02:47:01.086Z,1020.22
2019-01-19T02:48:10.464Z,1020.24
2019-01-19T02:49:19.658Z,1020.23
2019-01-19T02:50:28.750Z,1020.17
2019-01-19T02:51:37.874Z,1020.12
2019-01-19T02:52:47.247Z,1020.16
2019-01-19T02:53:56.586Z,1020.13
2019-01-19T02:55:06.200Z,1020.11
2019-01-19T02:56:15.352Z,1020.15
2019-01-19T02:57:24.726Z,1020.12
2019-01-19T02:58:33.793Z,1020.15
2019-01-19T02:59:42.633Z,1020.13
2019-01-19T03:00:51.811Z,1020.09
2019-01-19T03:02:00.624Z,1020.1
2019-01-19T03:03:09.703Z,1020.09
2019-01-19T03:04:18.766Z,1020.07
2019-01-19T03:05:27.592Z,1020.09
2019-01-19T03:06:36.722Z,1020.09
2019-01-19T03:07:45.796Z,1020.08
2019-01-19T03:08:54.623Z,1020.05
2019-01-19T03:10:03.713Z,1020.09
2019-01-19T03:11:12.621Z,1020.06
2019-01-19T03:12:21.560Z,1020.04
2019-01-19T03:13:30.655Z,1020.05
2019-01-19T03:14:39.484Z,1020.04
2019-01-19T03:15:48.584Z,1020
2019-01-19T03:16:57.421Z,1020.05
2019-01-19T03:18:06.425Z,1020
2019-01-19T03:19:15.535Z,1020.01
2019-01-19T03:20:24.620Z,1020
2019-01-19T03:21:33.701Z,1020.01
2019-01-19T03:22:42.530Z,1019.97
2019-01-19T03:23:51.353Z,1019.96
2019-01-19T03:25:00.253Z,1020
2019-01-19T03:26:09.371Z,1020.01
2019-01-19T03:27:18.990Z,1019.99
2019-01-19T03:28:27.796Z,1019.97
2019-01-19T03:29:37.200Z,1019.99
2019-01-19T03:30:46.298Z,1019.95
2019-01-19T03:31:55.421Z,1019.92
2019-01-19T03:33:04.604Z,1019.95
2019-01-19T03:34:13.721Z,1019.93
2019-01-19T03:35:22.891Z,1019.93
2019-01-19T03:36:32.515Z,1019.91
2019-01-19T03:37:41.616Z,1019.94
2019-01-19T03:38:50.445Z,1019.94
2019-01-19T03:39:59.268Z,1019.97
2019-01-19T03:41:08.463Z,1019.97
2019-01-19T03:42:17.823Z,1019.96
2019-01-19T03:43:26.931Z,1019.95
2019-01-19T03:44:36.551Z,1019.96
2019-01-19T03:45:45.628Z,1019.97
2019-01-19T03:46:54.891Z,1019.95
2019-01-19T03:48:03.730Z,1020.01
2019-01-19T03:49:13.086Z,1019.99
2019-01-19T03:50:21.927Z,1019.96
2019-01-19T03:51:31.033Z,1020
2019-01-19T03:52:40.164Z,1020
2019-01-19T03:53:48.993Z,1020
2019-01-19T03:54:58.081Z,1020.01
2019-01-19T03:56:07.292Z,1020.01
2019-01-19T03:57:16.119Z,1020.01
2019-01-19T03:58:25.044Z,1019.97
2019-01-19T03:59:33.875Z,1019.96
2019-01-19T04:00:42.697Z,1019.99
2019-01-19T04:01:51.791Z,1019.96
2019-01-19T04:03:00.657Z,1019.94
2019-01-19T04:04:09.860Z,1019.9
2019-01-19T04:05:18.694Z,1019.92
2019-01-19T04:06:28.047Z,1019.92
2019-01-19T04:07:37.398Z,1019.94
2019-01-19T04:08:46.753Z,1019.9
2019-01-19T04:09:55.882Z,1019.91
2019-01-19T04:11:04.750Z,1019.9
2019-01-19T04:12:14.118Z,1019.9
2019-01-19T04:13:22.924Z,1019.95
2019-01-19T04:14:32.028Z,1019.9
2019-01-19T04:15:41.503Z,1019.87
2019-01-19T04:16:50.614Z,1019.89
2019-01-19T04:17:59.734Z,1019.93
2019-01-19T04:19:08.824Z,1019.93
2019-01-19T04:20:17.666Z,1019.89
2019-01-19T04:21:27.089Z,1019.88
2019-01-19T04:22:36.738Z,1019.85
2019-01-19T04:23:45.555Z,1019.85
2019-01-19T04:24:54.930Z,1019.85
2019-01-19T04:26:04.576Z,1019.83
2019-01-19T04:27:14.056Z,1019.82
2019-01-19T04:28:22.866Z,1019.86
2019-01-19T04:29:31.712Z,1019.84
2019-01-19T04:30:40.561Z,1019.83
2019-01-19T04:31:49.971Z,1019.82
2019-01-19T04:32:59.206Z,1019.81
2019-01-19T04:34:08.014Z,1019.78
2019-01-19T04:35:17.101Z,1019.76
2019-01-19T04:36:26.450Z,1019.77
2019-01-19T04:37:35.564Z,1019.74
2019-01-19T04:38:45.008Z,1019.73
2019-01-19T04:39:54.087Z,1019.76
2019-01-19T04:41:03.449Z,1019.73
2019-01-19T04:42:12.561Z,1019.73
2019-01-19T04:43:21.652Z,1019.68
2019-01-19T04:44:30.492Z,1019.77
2019-01-19T04:45:39.555Z,1019.77
2019-01-19T04:46:48.364Z,1019.71
2019-01-19T04:47:57.199Z,1019.72
2019-01-19T04:49:06.281Z,1019.78
2019-01-19T04:50:15.112Z,1019.73
2019-01-19T04:51:23.920Z,1019.76
2019-01-19T04:52:33.300Z,1019.7
2019-01-19T04:53:42.131Z,1019.71
2019-01-19T04:54:50.998Z,1019.68
2019-01-19T04:56:00.436Z,1019.74
2019-01-19T04:57:09.538Z,1019.7
2019-01-19T04:58:18.351Z,1019.68
2019-01-19T04:59:27.171Z,1019.68
2019-01-19T05:00:36.517Z,1019.62
2019-01-19T05:01:45.655Z,1019.63
2019-01-19T05:02:54.458Z,1019.61
2019-01-19T05:04:03.295Z,1019.6
2019-01-19T05:05:12.136Z,1019.63
2019-01-19T05:06:21.222Z,1019.6
2019-01-19T05:07:37.509Z,1019.56
2019-01-19T05:08:46.613Z,1019.58
2019-01-19T05:09:55.434Z,1019.55
2019-01-19T05:11:04.540Z,1019.56
2019-01-19T05:12:13.360Z,1019.54
2019-01-19T05:13:22.726Z,1019.57
2019-01-19T05:14:31.794Z,1019.57
2019-01-19T05:15:40.898Z,1019.54
2019-01-19T05:16:50.036Z,1019.57
2019-01-19T05:17:59.381Z,1019.56
2019-01-19T05:19:08.822Z,1019.53
2019-01-19T05:20:17.946Z,1019.6
2019-01-19T05:21:26.791Z,1019.54
2019-01-19T05:22:35.908Z,1019.51
2019-01-19T05:23:45.002Z,1019.54
2019-01-19T05:24:53.948Z,1019.48
2019-01-19T05:26:02.753Z,1019.51
2019-01-19T05:27:11.579Z,1019.5
2019-01-19T05:28:20.420Z,1019.48
2019-01-19T05:29:29.262Z,1019.46
2019-01-19T05:30:38.065Z,1019.46
2019-01-19T05:31:47.417Z,1019.44
2019-01-19T05:32:56.522Z,1019.47
2019-01-19T05:34:05.880Z,1019.5
2019-01-19T05:35:14.997Z,1019.42
2019-01-19T05:36:23.916Z,1019.43
2019-01-19T05:37:40.511Z,1019.43
2019-01-19T05:38:49.879Z,1019.43
2019-01-19T05:39:58.704Z,1019.44
2019-01-19T05:41:07.517Z,1019.4
2019-01-19T05:42:16.967Z,1019.43
2019-01-19T05:43:26.088Z,1019.41
2019-01-19T05:44:34.909Z,1019.4
2019-01-19T05:45:45.167Z,1019.41
2019-01-19T05:46:54.241Z,1019.43
2019-01-19T05:48:03.448Z,1019.41
2019-01-19T05:49:12.635Z,1019.41
2019-01-19T05:50:21.979Z,1019.36
2019-01-19T05:51:30.806Z,1019.36
2019-01-19T05:52:39.922Z,1019.36
2019-01-19T05:53:49.138Z,1019.34
2019-01-19T05:54:58.239Z,1019.34
2019-01-19T05:56:07.072Z,1019.33
2019-01-19T05:57:16.163Z,1019.36
2019-01-19T05:58:25.268Z,1019.35
2019-01-19T05:59:34.347Z,1019.33
2019-01-19T06:00:43.447Z,1019.36
2019-01-19T06:01:52.544Z,1019.35
2019-01-19T06:03:01.370Z,1019.35
2019-01-19T06:04:10.732Z,1019.34
2019-01-19T06:05:19.927Z,1019.34
2019-01-19T06:06:28.742Z,1019.33
2019-01-19T06:07:38.104Z,1019.33
2019-01-19T06:08:48.881Z,1019.35
2019-01-19T06:09:57.985Z,1019.36
2019-01-19T06:11:07.119Z,1019.39
2019-01-19T06:12:15.956Z,1019.37
2019-01-19T06:13:25.061Z,1019.36
2019-01-19T06:14:33.877Z,1019.42
2019-01-19T06:15:42.706Z,1019.38
2019-01-19T06:16:51.896Z,1019.42
2019-01-19T06:18:01.253Z,1019.43
2019-01-19T06:19:10.347Z,1019.41
2019-01-19T06:20:19.755Z,1019.41
2019-01-19T06:21:28.594Z,1019.42
2019-01-19T06:22:37.528Z,1019.46
2019-01-19T06:23:46.870Z,1019.43
2019-01-19T06:24:56.001Z,1019.45
2019-01-19T06:26:04.888Z,1019.46
2019-01-19T06:27:13.968Z,1019.48
2019-01-19T06:28:23.138Z,1019.52
2019-01-19T06:29:32.241Z,1019.5
2019-01-19T06:30:41.329Z,1019.47
2019-01-19T06:31:50.153Z,1019.46
2019-01-19T06:32:59.262Z,1019.5
2019-01-19T06:34:08.216Z,1019.48
2019-01-19T06:35:17.043Z,1019.55
2019-01-19T06:36:26.143Z,1019.51
2019-01-19T06:37:35.301Z,1019.58
2019-01-19T06:38:44.137Z,1019.51
2019-01-19T06:39:53.033Z,1019.55
2019-01-19T06:41:02.138Z,1019.57
2019-01-19T06:42:11.247Z,1019.61
2019-01-19T06:43:20.092Z,1019.63
2019-01-19T06:44:28.933Z,1019.61
2019-01-19T06:45:37.851Z,1019.64
2019-01-19T06:46:47.213Z,1019.66
2019-01-19T06:47:56.289Z,1019.63
2019-01-19T06:49:05.091Z,1019.64
2019-01-19T06:50:14.432Z,1019.64
2019-01-19T06:51:23.313Z,1019.66
2019-01-19T06:52:32.663Z,1019.67
2019-01-19T06:53:41.740Z,1019.68
2019-01-19T06:54:50.818Z,1019.67
2019-01-19T06:56:00.179Z,1019.68
2019-01-19T06:57:09.300Z,1019.69
2019-01-19T06:58:18.120Z,1019.71
2019-01-19T06:59:27.237Z,1019.72
2019-01-19T07:00:36.056Z,1019.7
2019-01-19T07:01:45.156Z,1019.69
2019-01-19T07:02:54.351Z,1019.7
2019-01-19T07:04:03.175Z,1019.71
2019-01-19T07:05:12.804Z,1019.69
2019-01-19T07:06:21.946Z,1019.67
2019-01-19T07:07:31.600Z,1019.7
2019-01-19T07:08:40.729Z,1019.73
2019-01-19T07:09:49.845Z,1019.74
2019-01-19T07:10:58.691Z,1019.73
2019-01-19T07:12:07.508Z,1019.76
2019-01-19T07:13:16.335Z,1019.73
2019-01-19T07:14:25.519Z,1019.75
2019-01-19T07:15:34.342Z,1019.78
2019-01-19T07:16:43.184Z,1019.76
2019-01-19T07:17:52.031Z,1019.75
2019-01-19T07:19:00.857Z,1019.72
2019-01-19T07:20:09.740Z,1019.74
2019-01-19T07:21:18.552Z,1019.78
2019-01-19T07:22:27.389Z,1019.76
2019-01-19T07:23:36.492Z,1019.77
2019-01-19T07:24:45.591Z,1019.74
2019-01-19T07:25:54.516Z,1019.75
2019-01-19T07:27:04.152Z,1019.75
2019-01-19T07:28:12.958Z,1019.76
2019-01-19T07:29:22.076Z,1019.81
2019-01-19T07:30:31.180Z,1019.77
2019-01-19T07:31:40.118Z,1019.76
2019-01-19T07:32:48.929Z,1019.76
2019-01-19T07:33:57.766Z,1019.74
2019-01-19T07:35:06.619Z,1019.75
2019-01-19T07:36:15.437Z,1019.76
2019-01-19T07:37:24.305Z,1019.76
2019-01-19T07:38:33.170Z,1019.78
2019-01-19T07:39:42.270Z,1019.76
2019-01-19T07:40:51.085Z,1019.77
2019-01-19T07:41:59.923Z,1019.79
2019-01-19T07:43:08.853Z,1019.77
2019-01-19T07:44:17.684Z,1019.82
2019-01-19T07:45:26.790Z,1019.77
2019-01-19T07:46:35.854Z,1019.77
2019-01-19T07:47:44.924Z,1019.77
2019-01-19T07:48:53.808Z,1019.84
2019-01-19T07:50:02.903Z,1019.82
2019-01-19T07:51:12.024Z,1019.8
2019-01-19T07:52:20.841Z,1019.84
2019-01-19T07:53:29.660Z,1019.84
2019-01-19T07:54:38.567Z,1019.81
2019-01-19T07:55:47.385Z,1019.84
2019-01-19T07:56:56.482Z,1019.86
2019-01-19T07:58:05.829Z,1019.88
2019-01-19T07:59:14.652Z,1019.88
2019-01-19T08:00:24.348Z,1019.9
2019-01-19T08:01:33.183Z,1019.85
2019-01-19T08:02:42.817Z,1019.9
2019-01-19T08:03:51.634Z,1019.94
2019-01-19T08:05:00.708Z,1019.93
2019-01-19T08:06:09.617Z,1019.92
2019-01-19T08:07:18.694Z,1019.91
2019-01-19T08:08:27.499Z,1019.92
2019-01-19T08:09:36.583Z,1019.91
2019-01-19T08:10:45.688Z,1019.9
2019-01-19T08:11:54.549Z,1019.9
2019-01-19T08:13:03.372Z,1019.92
2019-01-19T08:14:12.191Z,1019.92
2019-01-19T08:15:21.264Z,1019.92
2019-01-19T08:16:31.869Z,1019.92
2019-01-19T08:17:40.748Z,1019.89
2019-01-19T08:18:50.083Z,1019.9
2019-01-19T08:19:59.426Z,1019.9
2019-01-19T08:21:08.870Z,1019.89
2019-01-19T08:22:17.950Z,1019.92
2019-01-19T08:23:27.129Z,1019.9
2019-01-19T08:24:35.961Z,1019.94
2019-01-19T08:25:44.845Z,1019.89
2019-01-19T08:26:53.667Z,1019.91
2019-01-19T08:28:02.781Z,1019.91
2019-01-19T08:29:11.947Z,1019.92
2019-01-19T08:30:21.124Z,1019.92
2019-01-19T08:31:29.942Z,1019.93
2019-01-19T08:32:39.303Z,1019.9
2019-01-19T08:33:48.406Z,1019.91
2019-01-19T08:34:58.198Z,1019.92
2019-01-19T08:36:07.019Z,1019.89
2019-01-19T08:37:15.859Z,1019.91
2019-01-19T08:38:31.108Z,1019.9
2019-01-19T08:39:39.937Z,1019.88
2019-01-19T08:40:49.387Z,1019.93
2019-01-19T08:41:58.692Z,1019.87
2019-01-19T08:43:08.048Z,1019.92
2019-01-19T08:44:17.133Z,1019.92
2019-01-19T08:45:25.967Z,1019.92
2019-01-19T08:46:35.357Z,1019.94
2019-01-19T08:47:44.173Z,1019.94
2019-01-19T08:48:53.005Z,1019.94
2019-01-19T08:50:02.087Z,1019.96
2019-01-19T08:51:10.929Z,1019.96
2019-01-19T08:52:21.016Z,1019.98
2019-01-19T08:53:30.368Z,1019.98
2019-01-19T08:54:39.180Z,1019.98
2019-01-19T08:55:48.257Z,1020
2019-01-19T08:56:57.625Z,1019.99
2019-01-19T08:58:06.812Z,1019.99
2019-01-19T08:59:15.909Z,1019.99
2019-01-19T09:00:24.739Z,1019.97
2019-01-19T09:01:33.849Z,1019.96
2019-01-19T09:02:42.928Z,1019.95
2019-01-19T09:03:52.116Z,1019.98
2019-01-19T09:05:01.210Z,1019.97
2019-01-19T09:06:10.282Z,1019.99
2019-01-19T09:07:19.623Z,1019.99
2019-01-19T09:08:38.336Z,1020
2019-01-19T09:09:47.241Z,1020
2019-01-19T09:10:56.076Z,1019.96
2019-01-19T09:12:05.511Z,1020.02
2019-01-19T09:13:14.611Z,1020
2019-01-19T09:14:23.706Z,1020.04
2019-01-19T09:15:32.592Z,1020.05
2019-01-19T09:16:41.822Z,1020.06
2019-01-19T09:17:50.931Z,1020.05
2019-01-19T09:19:00.046Z,1020.04
2019-01-19T09:20:08.842Z,1020.02
2019-01-19T09:21:18.022Z,1020.01
2019-01-19T09:22:27.098Z,1020.06
2019-01-19T09:23:36.611Z,1020.07
2019-01-19T09:24:45.697Z,1020.09
2019-01-19T09:25:54.526Z,1020.08
2019-01-19T09:27:03.721Z,1020.11
2019-01-19T09:28:12.545Z,1020.1
2019-01-19T09:29:21.622Z,1020.12
2019-01-19T09:30:30.685Z,1020.13
2019-01-19T09:31:39.500Z,1020.11
2019-01-19T09:32:49.697Z,1020.15
2019-01-19T09:33:59.058Z,1020.14
2019-01-19T09:35:07.898Z,1020.13
2019-01-19T09:36:16.993Z,1020.1
2019-01-19T09:37:26.088Z,1020.11
2019-01-19T09:38:41.093Z,1020.12
2019-01-19T09:39:50.179Z,1020.17
2019-01-19T09:40:59.286Z,1020.16
2019-01-19T09:42:08.399Z,1020.17
2019-01-19T09:43:18.327Z,1020.17
2019-01-19T09:44:27.809Z,1020.17
2019-01-19T09:45:36.631Z,1020.19
2019-01-19T09:46:45.993Z,1020.17
2019-01-19T09:47:55.591Z,1020.21
2019-01-19T09:49:04.692Z,1020.18
2019-01-19T09:50:13.817Z,1020.14
2019-01-19T09:51:23.223Z,1020.11
2019-01-19T09:52:32.041Z,1020.09
2019-01-19T09:53:41.116Z,1020.11
2019-01-19T09:54:49.946Z,1020.08
2019-01-19T09:55:58.831Z,1020.13
2019-01-19T09:57:08.191Z,1020.06
2019-01-19T09:58:17.291Z,1020.08
2019-01-19T09:59:26.617Z,1020.12
2019-01-19T10:00:37.615Z,1020.06
2019-01-19T10:01:52.337Z,1020.12
2019-01-19T10:03:01.183Z,1020.1
2019-01-19T10:04:10.544Z,1020.11
2019-01-19T10:05:19.670Z,1020.12
2019-01-19T10:06:28.472Z,1020.1
2019-01-19T10:07:37.843Z,1020.13
2019-01-19T10:08:53.197Z,1020.13
2019-01-19T10:10:02.022Z,1020.12
2019-01-19T10:11:11.369Z,1020.13
2019-01-19T10:12:20.185Z,1020.11
2019-01-19T10:13:29.338Z,1020.13
2019-01-19T10:14:39.574Z,1020.13
2019-01-19T10:15:48.458Z,1020.11
2019-01-19T10:16:57.542Z,1020.13
2019-01-19T10:18:06.368Z,1020.13
2019-01-19T10:19:16.088Z,1020.09
2019-01-19T10:20:25.182Z,1020.14
2019-01-19T10:21:34.533Z,1020.15
2019-01-19T10:22:43.345Z,1020.12
2019-01-19T10:23:52.165Z,1020.14
2019-01-19T10:25:01.026Z,1020.16
2019-01-19T10:26:10.116Z,1020.13
2019-01-19T10:27:19.192Z,1020.16
2019-01-19T10:28:28.005Z,1020.17
2019-01-19T10:29:36.813Z,1020.14
2019-01-19T10:30:45.947Z,1020.12
2019-01-19T10:31:56.069Z,1020.12
2019-01-19T10:33:05.178Z,1020.13
2019-01-19T10:34:14.012Z,1020.12
2019-01-19T10:35:23.106Z,1020.12
2019-01-19T10:36:32.299Z,1020.09
2019-01-19T10:37:41.424Z,1020.05
2019-01-19T10:38:56.905Z,1020.07
2019-01-19T10:40:05.731Z,1020.07
2019-01-19T10:41:14.800Z,1020.08
2019-01-19T10:42:23.716Z,1020.08
2019-01-19T10:43:33.093Z,1020.08
2019-01-19T10:44:41.911Z,1020.09
2019-01-19T10:45:51.011Z,1020.05
2019-01-19T10:47:00.117Z,1020.05
2019-01-19T10:48:08.934Z,1019.99
2019-01-19T10:49:17.745Z,1020.03
2019-01-19T10:50:26.587Z,1020.04
2019-01-19T10:51:35.691Z,1020.01
2019-01-19T10:52:44.501Z,1019.99
2019-01-19T10:53:53.920Z,1020.02
2019-01-19T10:55:02.746Z,1020.03
2019-01-19T10:56:11.869Z,1019.99
2019-01-19T10:57:21.217Z,1019.97
2019-01-19T10:58:30.579Z,1019.99
2019-01-19T10:59:39.503Z,1019.96
2019-01-19T11:00:48.582Z,1019.94
2019-01-19T11:01:57.683Z,1019.98
2019-01-19T11:03:07.176Z,1019.93
2019-01-19T11:04:16.533Z,1019.97
2019-01-19T11:05:25.404Z,1019.96
2019-01-19T11:06:34.496Z,1019.96
2019-01-19T11:07:43.579Z,1019.93
2019-01-19T11:08:52.648Z,1019.83
2019-01-19T11:10:01.720Z,1019.83
2019-01-19T11:11:11.168Z,1019.85
2019-01-19T11:12:19.994Z,1019.83
2019-01-19T11:13:29.350Z,1019.83
2019-01-19T11:14:38.163Z,1019.83
2019-01-19T11:15:47.541Z,1019.79
2019-01-19T11:16:56.712Z,1019.77
2019-01-19T11:18:05.833Z,1019.76
2019-01-19T11:19:14.916Z,1019.74
2019-01-19T11:20:23.728Z,1019.71
2019-01-19T11:21:32.544Z,1019.76
2019-01-19T11:22:41.985Z,1019.74
2019-01-19T11:23:50.851Z,1019.74
2019-01-19T11:24:59.949Z,1019.68
2019-01-19T11:26:09.329Z,1019.7
2019-01-19T11:27:18.674Z,1019.67
2019-01-19T11:28:27.594Z,1019.64
2019-01-19T11:29:36.396Z,1019.63
2019-01-19T11:30:45.209Z,1019.65
2019-01-19T11:31:54.037Z,1019.61
2019-01-19T11:33:03.403Z,1019.56
2019-01-19T11:34:12.856Z,1019.56
2019-01-19T11:35:21.737Z,1019.59
2019-01-19T11:36:30.813Z,1019.57
2019-01-19T11:37:39.895Z,1019.5
2019-01-19T11:38:48.717Z,1019.48
2019-01-19T11:39:57.542Z,1019.47
2019-01-19T11:41:06.877Z,1019.44
2019-01-19T11:42:15.702Z,1019.41
2019-01-19T11:43:24.510Z,1019.4
2019-01-19T11:44:33.589Z,1019.39
2019-01-19T11:45:42.672Z,1019.39
2019-01-19T11:46:51.507Z,1019.39
2019-01-19T11:48:00.324Z,1019.36
2019-01-19T11:49:09.158Z,1019.34
2019-01-19T11:50:18.263Z,1019.34
2019-01-19T11:51:28.224Z,1019.31
2019-01-19T11:52:37.301Z,1019.33
2019-01-19T11:53:46.909Z,1019.32
2019-01-19T11:54:56.501Z,1019.32
2019-01-19T11:56:11.908Z,1019.26
2019-01-19T11:57:20.992Z,1019.27
2019-01-19T11:58:29.812Z,1019.3
2019-01-19T11:59:38.623Z,1019.28
2019-01-19T12:00:47.695Z,1019.27
2019-01-19T12:01:56.777Z,1019.29
2019-01-19T12:03:05.846Z,1019.27
2019-01-19T12:04:14.942Z,1019.25
2019-01-19T12:05:23.777Z,1019.21
2019-01-19T12:06:32.608Z,1019.22
2019-01-19T12:07:41.705Z,1019.24
2019-01-19T12:08:50.562Z,1019.23
2019-01-19T12:09:59.843Z,1019.21
2019-01-19T12:11:09.182Z,1019.16
2019-01-19T12:12:18.532Z,1019.2
2019-01-19T12:13:27.620Z,1019.19
2019-01-19T12:14:36.424Z,1019.16
2019-01-19T12:15:45.274Z,1019.12
2019-01-19T12:16:54.386Z,1019.13
2019-01-19T12:18:03.204Z,1019.13
2019-01-19T12:19:13.662Z,1019.1
2019-01-19T12:20:22.768Z,1019.06
2019-01-19T12:21:31.843Z,1019.06
2019-01-19T12:22:41.455Z,1019.01
2019-01-19T12:23:50.339Z,1019.04
2019-01-19T12:24:59.152Z,1019.08
2019-01-19T12:26:08.080Z,1019.01
2019-01-19T12:27:17.160Z,1019
2019-01-19T12:28:26.001Z,1018.98
2019-01-19T12:29:35.128Z,1018.96
2019-01-19T12:30:44.474Z,1018.95
2019-01-19T12:31:55.792Z,1018.95
2019-01-19T12:33:05.144Z,1018.95
2019-01-19T12:34:14.228Z,1018.94
2019-01-19T12:35:23.610Z,1018.92
2019-01-19T12:36:32.961Z,1018.93
2019-01-19T12:37:41.764Z,1018.89
2019-01-19T12:38:51.127Z,1018.89
2019-01-19T12:39:59.948Z,1018.88
2019-01-19T12:41:09.048Z,1018.9
2019-01-19T12:42:18.659Z,1018.91
2019-01-19T12:43:27.561Z,1018.87
2019-01-19T12:44:36.648Z,1018.89
2019-01-19T12:45:46.299Z,1018.86
2019-01-19T12:46:55.131Z,1018.84
2019-01-19T12:48:04.230Z,1018.81
2019-01-19T12:49:14.622Z,1018.81
2019-01-19T12:50:23.485Z,1018.78
2019-01-19T12:51:32.569Z,1018.82
2019-01-19T12:52:41.400Z,1018.78
2019-01-19T12:53:50.526Z,1018.81
2019-01-19T12:55:00.529Z,1018.8
2019-01-19T12:56:09.628Z,1018.79
2019-01-19T12:57:18.458Z,1018.77
2019-01-19T12:58:27.254Z,1018.79
2019-01-19T12:59:36.351Z,1018.76
2019-01-19T13:00:45.234Z,1018.75
2019-01-19T13:01:54.090Z,1018.77
2019-01-19T13:03:03.194Z,1018.77
2019-01-19T13:04:12.808Z,1018.78
2019-01-19T13:05:21.920Z,1018.77
2019-01-19T13:06:31.002Z,1018.77
2019-01-19T13:07:40.084Z,1018.73
2019-01-19T13:08:48.930Z,1018.75
2019-01-19T13:09:58.007Z,1018.73
2019-01-19T13:11:06.915Z,1018.69
2019-01-19T13:12:17.625Z,1018.69
2019-01-19T13:13:26.466Z,1018.68
2019-01-19T13:14:35.275Z,1018.7
2019-01-19T13:15:44.108Z,1018.69
2019-01-19T13:16:52.924Z,1018.64
2019-01-19T13:18:01.809Z,1018.63
2019-01-19T13:19:11.170Z,1018.62
2019-01-19T13:20:20.533Z,1018.61
2019-01-19T13:21:29.640Z,1018.58
2019-01-19T13:22:38.444Z,1018.57
2019-01-19T13:23:48.561Z,1018.55
2019-01-19T13:24:57.655Z,1018.59
2019-01-19T13:26:06.487Z,1018.57
2019-01-19T13:27:15.821Z,1018.52
2019-01-19T13:28:24.909Z,1018.52
2019-01-19T13:29:34.308Z,1018.48
2019-01-19T13:30:43.675Z,1018.47
2019-01-19T13:31:52.761Z,1018.49
2019-01-19T13:33:01.571Z,1018.49
2019-01-19T13:34:10.655Z,1018.49
2019-01-19T13:35:19.801Z,1018.49
2019-01-19T13:36:28.624Z,1018.49
2019-01-19T13:37:37.452Z,1018.49
2019-01-19T13:38:46.526Z,1018.46
2019-01-19T13:39:55.330Z,1018.48
2019-01-19T13:41:04.512Z,1018.44
2019-01-19T13:42:14.359Z,1018.44
2019-01-19T13:43:23.163Z,1018.42
2019-01-19T13:44:31.996Z,1018.41
2019-01-19T13:45:41.082Z,1018.42
2019-01-19T13:46:50.283Z,1018.4
2019-01-19T13:47:59.699Z,1018.39
2019-01-19T13:49:08.498Z,1018.39
2019-01-19T13:50:17.584Z,1018.41
2019-01-19T13:51:26.653Z,1018.39
2019-01-19T13:52:35.616Z,1018.38
2019-01-19T13:53:44.728Z,1018.36
2019-01-19T13:54:53.554Z,1018.4
2019-01-19T13:56:02.646Z,1018.31
2019-01-19T13:57:11.849Z,1018.32
2019-01-19T13:58:20.811Z,1018.31
2019-01-19T13:59:29.890Z,1018.29
2019-01-19T14:00:38.987Z,1018.3